No particular awareness of the weather is required.    There are no Weather-warnings


Meteo18 Weather Cam more information Meteo18 Weather Cam


Thunder radar more information blitzortung!


Rain radar more information rain snow radar


Visit our other weather sites:

Template documentation
and downloads

And another site



Weather Underground History page Text

Daily Summary for January 31, 2017 Units:  Both    English   Metric
« Previous Day
Next Day »
Daily Weekly Monthly Yearly Custom
  High: Low: Average:
Temperature: 54.1 °F /  12.3 °C 46 °F /  7.8 °C 48.9 °F /  9.4 °C
Dew Point: 52.5 °F /  11.4 °C 45.5 °F /  7.5 °C 48.2 °F /  9 °C
Humidity: 98 % 94 % 97 %
Wind Speed: 6 mph /  9.7 km/h - 1.4 mph /  2.2 km/h
Wind Gust: 10 mph /  16.1 km/h - -
Wind:- - SW
Pressure: 30 in /  1017.2 hPa 30 in /  1015.5 hPa -
Precipitation: 0.03 in /  0.8 mm    
Historical Graphs
 
 
Tabular Data for January 31, 2017
Time Temperature Dew Point Pressure Wind Wind Speed Wind Gust Humidity Rainfall Rate (Hourly)
00:02 47.7 °F /  8.7 °C 47.1 °F /  8.4 °C 30 in /  1016.8 hPa SSW 3 mph /  4.8 km/h 10 mph /  16.1 km/h 98 % 0.04 in /  1.0 mm
00:12 47.1 °F /  8.4 °C 46.6 °F /  8.1 °C 30 in /  1016.8 hPa South 3 mph /  4.8 km/h 8 mph /  12.9 km/h 98 % 0.03 in /  0.8 mm
00:17 47.1 °F /  8.4 °C 46.6 °F /  8.1 °C 30 in /  1016.8 hPa South 3 mph /  4.8 km/h 8 mph /  12.9 km/h 98 % 0.02 in /  0.5 mm
00:22 47.1 °F /  8.4 °C 46.6 °F /  8.1 °C 30 in /  1016.5 hPa SSW 2 mph /  3.2 km/h 8 mph /  12.9 km/h 98 % 0.02 in /  0.5 mm
00:32 46.9 °F /  8.3 °C 46.4 °F /  8.0 °C 30 in /  1016.5 hPa SSE 1 mph /  1.6 km/h 5 mph /  8.0 km/h 98 % 0.02 in /  0.5 mm
00:37 47.1 °F /  8.4 °C 46.6 °F /  8.1 °C 30 in /  1016.5 hPa South 1 mph /  1.6 km/h 3 mph /  4.8 km/h 98 % 0.01 in /  0.3 mm
00:42 47.1 °F /  8.4 °C 46.6 °F /  8.1 °C 30 in /  1016.5 hPa Calm   3 mph /  4.8 km/h 98 % 0.01 in /  0.3 mm
00:52 46.9 °F /  8.3 °C 46.4 °F /  8.0 °C 30 in /  1016.5 hPa SSW 1 mph /  1.6 km/h 2 mph /  3.2 km/h 98 % 0.01 in /  0.3 mm
01:02 46.9 °F /  8.3 °C 46.4 °F /  8.0 °C 30 in /  1016.5 hPa Calm   2 mph /  3.2 km/h 98 % 0.01 in /  0.3 mm
01:12 46.9 °F /  8.3 °C 46.4 °F /  8.0 °C 30 in /  1016.5 hPa Calm   1 mph /  1.6 km/h 98 % 0.01 in /  0.3 mm
01:17 46.9 °F /  8.3 °C 46.4 °F /  8.0 °C 30 in /  1016.5 hPa Calm   2 mph /  3.2 km/h 98 % 0 in /  0.0 mm
01:22 46.9 °F /  8.3 °C 46.4 °F /  8.0 °C 30 in /  1016.5 hPa South 1 mph /  1.6 km/h 2 mph /  3.2 km/h 98 % 0 in /  0.0 mm
01:27 46.9 °F /  8.3 °C 46.4 °F /  8.0 °C 30 in /  1016.5 hPa SSW 1 mph /  1.6 km/h 2 mph /  3.2 km/h 98 % 0 in /  0.0 mm
01:32 46.8 °F /  8.2 °C 46.2 °F /  7.9 °C 30 in /  1016.5 hPa SSW 1 mph /  1.6 km/h 2 mph /  3.2 km/h 98 % 0 in /  0.0 mm
01:37 46.8 °F /  8.2 °C 46.2 °F /  7.9 °C 30 in /  1016.5 hPa SSW 2 mph /  3.2 km/h 3 mph /  4.8 km/h 98 % 0 in /  0.0 mm
01:42 46.8 °F /  8.2 °C 46.2 °F /  7.9 °C 30 in /  1016.5 hPa SW 3 mph /  4.8 km/h 3 mph /  4.8 km/h 98 % 0 in /  0.0 mm
01:52 46.9 °F /  8.3 °C 46.4 °F /  8.0 °C 30 in /  1016.1 hPa Calm   3 mph /  4.8 km/h 98 % 0 in /  0.0 mm
01:57 46.9 °F /  8.3 °C 46.4 °F /  8.0 °C 30 in /  1016.1 hPa Calm   4 mph /  6.4 km/h 98 % 0 in /  0.0 mm
02:02 46.8 °F /  8.2 °C 46.2 °F /  7.9 °C 30 in /  1016.1 hPa Calm   4 mph /  6.4 km/h 98 % 0 in /  0.0 mm
02:12 46.8 °F /  8.2 °C 46.2 °F /  7.9 °C 30 in /  1016.1 hPa Calm   2 mph /  3.2 km/h 98 % 0 in /  0.0 mm
02:17 46.8 °F /  8.2 °C 46.2 °F /  7.9 °C 30 in /  1016.1 hPa SSE 1 mph /  1.6 km/h 2 mph /  3.2 km/h 98 % 0 in /  0.0 mm
02:22 46.8 °F /  8.2 °C 46.2 °F /  7.9 °C 30 in /  1016.1 hPa South 2 mph /  3.2 km/h 2 mph /  3.2 km/h 98 % 0 in /  0.0 mm
02:32 46.8 °F /  8.2 °C 46.2 °F /  7.9 °C 30 in /  1016.1 hPa SW 3 mph /  4.8 km/h 3 mph /  4.8 km/h 98 % 0 in /  0.0 mm
02:37 46.8 °F /  8.2 °C 46.2 °F /  7.9 °C 30 in /  1016.1 hPa SW 2 mph /  3.2 km/h 3 mph /  4.8 km/h 98 % 0 in /  0.0 mm
02:42 46.6 °F /  8.1 °C 46 °F /  7.8 °C 30 in /  1016.1 hPa SSW 1 mph /  1.6 km/h 3 mph /  4.8 km/h 98 % 0 in /  0.0 mm
02:47 46.4 °F /  8.0 °C 45.9 °F /  7.7 °C 30 in /  1016.1 hPa SW 1 mph /  1.6 km/h 4 mph /  6.4 km/h 98 % 0 in /  0.0 mm
02:52 46.6 °F /  8.1 °C 46 °F /  7.8 °C 30 in /  1016.1 hPa Calm   4 mph /  6.4 km/h 98 % 0 in /  0.0 mm
02:57 46.6 °F /  8.1 °C 46 °F /  7.8 °C 30 in /  1016.1 hPa Calm   2 mph /  3.2 km/h 98 % 0 in /  0.0 mm
03:02 46.6 °F /  8.1 °C 46 °F /  7.8 °C 30 in /  1016.1 hPa South 1 mph /  1.6 km/h 2 mph /  3.2 km/h 98 % 0 in /  0.0 mm
03:12 46.6 °F /  8.1 °C 46 °F /  7.8 °C 30 in /  1016.1 hPa SW 1 mph /  1.6 km/h 2 mph /  3.2 km/h 98 % 0 in /  0.0 mm
03:17 46.6 °F /  8.1 °C 46 °F /  7.8 °C 30 in /  1016.1 hPa SW 1 mph /  1.6 km/h 2 mph /  3.2 km/h 98 % 0 in /  0.0 mm
03:22 46.6 °F /  8.1 °C 46 °F /  7.8 °C 30 in /  1016.1 hPa SSW 1 mph /  1.6 km/h 2 mph /  3.2 km/h 98 % 0 in /  0.0 mm
03:27 46.6 °F /  8.1 °C 46 °F /  7.8 °C 30 in /  1016.1 hPa SSW 2 mph /  3.2 km/h 2 mph /  3.2 km/h 98 % 0 in /  0.0 mm
03:32 46.6 °F /  8.1 °C 46 °F /  7.8 °C 30 in /  1016.1 hPa SSW 1 mph /  1.6 km/h 2 mph /  3.2 km/h 98 % 0 in /  0.0 mm
03:37 46.4 °F /  8.0 °C 45.9 °F /  7.7 °C 30 in /  1016.1 hPa SSW 1 mph /  1.6 km/h 2 mph /  3.2 km/h 98 % 0 in /  0.0 mm
03:42 46.4 °F /  8.0 °C 45.9 °F /  7.7 °C 30 in /  1016.1 hPa SSW 3 mph /  4.8 km/h 3 mph /  4.8 km/h 98 % 0 in /  0.0 mm
03:47 46.2 °F /  7.9 °C 45.7 °F /  7.6 °C 30 in /  1015.8 hPa SSW 1 mph /  1.6 km/h 3 mph /  4.8 km/h 98 % 0 in /  0.0 mm
03:52 46 °F /  7.8 °C 45.5 °F /  7.5 °C 30 in /  1015.8 hPa SSW 2 mph /  3.2 km/h 3 mph /  4.8 km/h 98 % 0 in /  0.0 mm
03:57 46 °F /  7.8 °C 45.5 °F /  7.5 °C 30 in /  1015.8 hPa SSW 2 mph /  3.2 km/h 4 mph /  6.4 km/h 98 % 0 in /  0.0 mm
04:02 46 °F /  7.8 °C 45.5 °F /  7.5 °C 30 in /  1015.8 hPa SSW 3 mph /  4.8 km/h 5 mph /  8.0 km/h 98 % 0 in /  0.0 mm
04:12 46 °F /  7.8 °C 45.5 °F /  7.5 °C 30 in /  1015.8 hPa SW 5 mph /  8.0 km/h 5 mph /  8.0 km/h 98 % 0 in /  0.0 mm
04:17 46 °F /  7.8 °C 45.5 °F /  7.5 °C 30 in /  1015.8 hPa SSW 3 mph /  4.8 km/h 5 mph /  8.0 km/h 98 % 0 in /  0.0 mm
04:22 46 °F /  7.8 °C 45.5 °F /  7.5 °C 30 in /  1015.8 hPa SSW 4 mph /  6.4 km/h 5 mph /  8.0 km/h 98 % 0 in /  0.0 mm
04:27 46 °F /  7.8 °C 45.5 °F /  7.5 °C 30 in /  1015.8 hPa SSW 3 mph /  4.8 km/h 5 mph /  8.0 km/h 98 % 0 in /  0.0 mm
04:32 46.2 °F /  7.9 °C 45.7 °F /  7.6 °C 30 in /  1015.8 hPa SSW 4 mph /  6.4 km/h 5 mph /  8.0 km/h 98 % 0 in /  0.0 mm
04:37 46.2 °F /  7.9 °C 45.7 °F /  7.6 °C 30 in /  1015.8 hPa SSW 3 mph /  4.8 km/h 6 mph /  9.7 km/h 98 % 0 in /  0.0 mm
04:42 46.2 °F /  7.9 °C 45.7 °F /  7.6 °C 30 in /  1015.5 hPa SSW 4 mph /  6.4 km/h 6 mph /  9.7 km/h 98 % 0 in /  0.0 mm
04:47 46.2 °F /  7.9 °C 45.7 °F /  7.6 °C 30 in /  1015.5 hPa South 3 mph /  4.8 km/h 6 mph /  9.7 km/h 98 % 0 in /  0.0 mm
04:52 46.2 °F /  7.9 °C 45.7 °F /  7.6 °C 30 in /  1015.5 hPa SSW 3 mph /  4.8 km/h 6 mph /  9.7 km/h 98 % 0 in /  0.0 mm
04:57 46.2 °F /  7.9 °C 45.7 °F /  7.6 °C 30 in /  1015.5 hPa SSW 2 mph /  3.2 km/h 5 mph /  8.0 km/h 98 % 0.01 in /  0.3 mm
05:02 46.6 °F /  8.1 °C 46 °F /  7.8 °C 30 in /  1015.5 hPa SSW 3 mph /  4.8 km/h 5 mph /  8.0 km/h 98 % 0.01 in /  0.3 mm
05:12 46.4 °F /  8.0 °C 45.9 °F /  7.7 °C 30 in /  1015.5 hPa SSW 1 mph /  1.6 km/h 6 mph /  9.7 km/h 98 % 0.01 in /  0.3 mm
05:17 46.4 °F /  8.0 °C 45.9 °F /  7.7 °C 30 in /  1015.5 hPa South 3 mph /  4.8 km/h 5 mph /  8.0 km/h 98 % 0.01 in /  0.3 mm
05:22 46.6 °F /  8.1 °C 46 °F /  7.8 °C 30 in /  1015.5 hPa South 2 mph /  3.2 km/h 5 mph /  8.0 km/h 98 % 0.01 in /  0.3 mm
05:27 46.6 °F /  8.1 °C 46 °F /  7.8 °C 30 in /  1015.5 hPa SSW 1 mph /  1.6 km/h 4 mph /  6.4 km/h 98 % 0.01 in /  0.3 mm
05:32 46.6 °F /  8.1 °C 46 °F /  7.8 °C 30 in /  1015.8 hPa South 2 mph /  3.2 km/h 4 mph /  6.4 km/h 98 % 0.01 in /  0.3 mm
05:37 46.6 °F /  8.1 °C 46 °F /  7.8 °C 30 in /  1015.5 hPa SSE 2 mph /  3.2 km/h 3 mph /  4.8 km/h 98 % 0.01 in /  0.3 mm
05:42 46.6 °F /  8.1 °C 46 °F /  7.8 °C 30 in /  1015.5 hPa Calm   3 mph /  4.8 km/h 98 % 0.01 in /  0.3 mm
05:47 46.6 °F /  8.1 °C 46 °F /  7.8 °C 30 in /  1015.5 hPa SSE 1 mph /  1.6 km/h 3 mph /  4.8 km/h 98 % 0.01 in /  0.3 mm
05:52 46.6 °F /  8.1 °C 46 °F /  7.8 °C 30 in /  1015.5 hPa SSW 2 mph /  3.2 km/h 3 mph /  4.8 km/h 98 % 0.01 in /  0.3 mm
06:02 46.6 °F /  8.1 °C 46 °F /  7.8 °C 30 in /  1015.5 hPa South 2 mph /  3.2 km/h 4 mph /  6.4 km/h 98 % 0 in /  0.0 mm
06:07 46.6 °F /  8.1 °C 46 °F /  7.8 °C 30 in /  1015.5 hPa SSW 2 mph /  3.2 km/h 4 mph /  6.4 km/h 98 % 0 in /  0.0 mm
06:12 46.6 °F /  8.1 °C 46 °F /  7.8 °C 30 in /  1015.5 hPa SSW 3 mph /  4.8 km/h 4 mph /  6.4 km/h 98 % 0 in /  0.0 mm
06:17 46.6 °F /  8.1 °C 46 °F /  7.8 °C 30 in /  1015.5 hPa SSW 2 mph /  3.2 km/h 4 mph /  6.4 km/h 98 % 0.01 in /  0.3 mm
06:22 46.6 °F /  8.1 °C 46 °F /  7.8 °C 30 in /  1015.5 hPa SSW 2 mph /  3.2 km/h 4 mph /  6.4 km/h 98 % 0.01 in /  0.3 mm
06:32 46.6 °F /  8.1 °C 46 °F /  7.8 °C 30 in /  1015.5 hPa SSW 4 mph /  6.4 km/h 4 mph /  6.4 km/h 98 % 0.01 in /  0.3 mm
06:42 46.6 °F /  8.1 °C 46 °F /  7.8 °C 30 in /  1015.5 hPa SSW 2 mph /  3.2 km/h 5 mph /  8.0 km/h 98 % 0.01 in /  0.3 mm
06:47 46.6 °F /  8.1 °C 46 °F /  7.8 °C 30 in /  1015.5 hPa SSW 2 mph /  3.2 km/h 5 mph /  8.0 km/h 98 % 0.01 in /  0.3 mm
06:52 46.6 °F /  8.1 °C 46 °F /  7.8 °C 30 in /  1015.5 hPa SW 3 mph /  4.8 km/h 5 mph /  8.0 km/h 98 % 0.01 in /  0.3 mm
06:57 46.6 °F /  8.1 °C 46 °F /  7.8 °C 30 in /  1015.5 hPa SSW 2 mph /  3.2 km/h 5 mph /  8.0 km/h 98 % 0.01 in /  0.3 mm
07:02 46.6 °F /  8.1 °C 46 °F /  7.8 °C 30 in /  1015.5 hPa SSW 4 mph /  6.4 km/h 5 mph /  8.0 km/h 98 % 0.01 in /  0.3 mm
07:12 46.4 °F /  8.0 °C 45.9 °F /  7.7 °C 30 in /  1015.5 hPa SW 4 mph /  6.4 km/h 4 mph /  6.4 km/h 98 % 0.01 in /  0.3 mm
07:17 46.4 °F /  8.0 °C 45.9 °F /  7.7 °C 30 in /  1015.5 hPa SSW 3 mph /  4.8 km/h 5 mph /  8.0 km/h 98 % 0 in /  0.0 mm
07:22 46.4 °F /  8.0 °C 45.9 °F /  7.7 °C 30 in /  1015.5 hPa SW 3 mph /  4.8 km/h 5 mph /  8.0 km/h 98 % 0 in /  0.0 mm
07:32 46.6 °F /  8.1 °C 46 °F /  7.8 °C 30 in /  1015.5 hPa SSW 5 mph /  8.0 km/h 6 mph /  9.7 km/h 98 % 0 in /  0.0 mm
07:37 46.6 °F /  8.1 °C 46 °F /  7.8 °C 30 in /  1015.5 hPa SW 3 mph /  4.8 km/h 6 mph /  9.7 km/h 98 % 0 in /  0.0 mm
07:42 46.6 °F /  8.1 °C 46 °F /  7.8 °C 30 in /  1015.5 hPa SSW 3 mph /  4.8 km/h 6 mph /  9.7 km/h 98 % 0 in /  0.0 mm
07:47 46.6 °F /  8.1 °C 46 °F /  7.8 °C 30 in /  1015.5 hPa SW 4 mph /  6.4 km/h 7 mph /  11.3 km/h 98 % 0 in /  0.0 mm
07:52 46.6 °F /  8.1 °C 46 °F /  7.8 °C 30 in /  1015.5 hPa SW 3 mph /  4.8 km/h 7 mph /  11.3 km/h 98 % 0 in /  0.0 mm
07:57 46.6 °F /  8.1 °C 46 °F /  7.8 °C 30 in /  1015.8 hPa SSW 2 mph /  3.2 km/h 7 mph /  11.3 km/h 98 % 0 in /  0.0 mm
08:02 46.4 °F /  8.0 °C 45.9 °F /  7.7 °C 30 in /  1015.5 hPa SSW 1 mph /  1.6 km/h 7 mph /  11.3 km/h 98 % 0 in /  0.0 mm
08:07 46.6 °F /  8.1 °C 46 °F /  7.8 °C 30 in /  1015.8 hPa SSE 1 mph /  1.6 km/h 4 mph /  6.4 km/h 98 % 0 in /  0.0 mm
08:12 46.6 °F /  8.1 °C 46 °F /  7.8 °C 30 in /  1015.8 hPa Calm   4 mph /  6.4 km/h 98 % 0 in /  0.0 mm
08:17 46.6 °F /  8.1 °C 46 °F /  7.8 °C 30 in /  1015.8 hPa SSE 1 mph /  1.6 km/h 3 mph /  4.8 km/h 98 % 0 in /  0.0 mm
08:22 46.6 °F /  8.1 °C 46 °F /  7.8 °C 30 in /  1015.8 hPa Calm   3 mph /  4.8 km/h 98 % 0 in /  0.0 mm
08:32 46.6 °F /  8.1 °C 46 °F /  7.8 °C 30 in /  1016.1 hPa Calm   1 mph /  1.6 km/h 98 % 0 in /  0.0 mm
08:37 46.6 °F /  8.1 °C 46 °F /  7.8 °C 30 in /  1016.1 hPa Calm   1 mph /  1.6 km/h 98 % 0 in /  0.0 mm
08:42 46.6 °F /  8.1 °C 46 °F /  7.8 °C 30 in /  1016.1 hPa SSW 3 mph /  4.8 km/h 3 mph /  4.8 km/h 98 % 0 in /  0.0 mm
08:52 46.6 °F /  8.1 °C 46 °F /  7.8 °C 30 in /  1016.1 hPa SSW 1 mph /  1.6 km/h 3 mph /  4.8 km/h 98 % 0 in /  0.0 mm
08:57 46.6 °F /  8.1 °C 46 °F /  7.8 °C 30 in /  1016.1 hPa Calm   3 mph /  4.8 km/h 98 % 0 in /  0.0 mm
09:02 46.6 °F /  8.1 °C 46 °F /  7.8 °C 30 in /  1016.1 hPa Calm   3 mph /  4.8 km/h 98 % 0 in /  0.0 mm
09:12 46.4 °F /  8.0 °C 45.9 °F /  7.7 °C 30 in /  1016.1 hPa SSW 1 mph /  1.6 km/h 2 mph /  3.2 km/h 98 % 0 in /  0.0 mm
09:17 46.4 °F /  8.0 °C 45.9 °F /  7.7 °C 30 in /  1016.1 hPa SSW 1 mph /  1.6 km/h 2 mph /  3.2 km/h 98 % 0 in /  0.0 mm
09:22 46.4 °F /  8.0 °C 45.9 °F /  7.7 °C 30 in /  1016.1 hPa Calm   2 mph /  3.2 km/h 98 % 0 in /  0.0 mm
09:32 46.4 °F /  8.0 °C 45.9 °F /  7.7 °C 30 in /  1016.1 hPa South 1 mph /  1.6 km/h 2 mph /  3.2 km/h 98 % 0 in /  0.0 mm
09:37 46.6 °F /  8.1 °C 46 °F /  7.8 °C 30 in /  1016.1 hPa Calm   2 mph /  3.2 km/h 98 % 0 in /  0.0 mm
09:42 46.6 °F /  8.1 °C 46 °F /  7.8 °C 30 in /  1016.1 hPa Calm   2 mph /  3.2 km/h 98 % 0 in /  0.0 mm
09:52 46.8 °F /  8.2 °C 46.2 °F /  7.9 °C 30 in /  1016.1 hPa Calm   1 mph /  1.6 km/h 98 % 0 in /  0.0 mm
10:02 46.8 °F /  8.2 °C 46.2 °F /  7.9 °C 30 in /  1016.1 hPa SSW 1 mph /  1.6 km/h 1 mph /  1.6 km/h 98 % 0 in /  0.0 mm
10:07 46.9 °F /  8.3 °C 46.4 °F /  8.0 °C 30 in /  1016.5 hPa Calm   2 mph /  3.2 km/h 98 % 0 in /  0.0 mm
10:12 46.9 °F /  8.3 °C 46.4 °F /  8.0 °C 30 in /  1016.5 hPa Calm   2 mph /  3.2 km/h 98 % 0 in /  0.0 mm
10:17 46.9 °F /  8.3 °C 46.4 °F /  8.0 °C 30 in /  1016.5 hPa Calm   2 mph /  3.2 km/h 98 % 0 in /  0.0 mm
10:22 47.1 °F /  8.4 °C 46.6 °F /  8.1 °C 30 in /  1016.5 hPa SSW 2 mph /  3.2 km/h 2 mph /  3.2 km/h 98 % 0 in /  0.0 mm
10:32 47.5 °F /  8.6 °C 46.9 °F /  8.3 °C 30 in /  1016.5 hPa SSE 2 mph /  3.2 km/h 5 mph /  8.0 km/h 98 % 0 in /  0.0 mm
10:42 47.7 °F /  8.7 °C 47.1 °F /  8.4 °C 30 in /  1016.8 hPa WSW 2 mph /  3.2 km/h 5 mph /  8.0 km/h 98 % 0 in /  0.0 mm
10:47 47.7 °F /  8.7 °C 47.1 °F /  8.4 °C 30 in /  1016.8 hPa SW 4 mph /  6.4 km/h 6 mph /  9.7 km/h 98 % 0.01 in /  0.3 mm
10:57 47.8 °F /  8.8 °C 47.3 °F /  8.5 °C 30 in /  1016.8 hPa SW 4 mph /  6.4 km/h 7 mph /  11.3 km/h 98 % 0.01 in /  0.3 mm
11:02 47.8 °F /  8.8 °C 47.3 °F /  8.5 °C 30 in /  1016.8 hPa SSW 4 mph /  6.4 km/h 7 mph /  11.3 km/h 98 % 0.01 in /  0.3 mm
11:07 48 °F /  8.9 °C 47.5 °F /  8.6 °C 30 in /  1016.8 hPa WSW 4 mph /  6.4 km/h 6 mph /  9.7 km/h 98 % 0.01 in /  0.3 mm
11:12 48 °F /  8.9 °C 47.5 °F /  8.6 °C 30 in /  1016.8 hPa SW 2 mph /  3.2 km/h 6 mph /  9.7 km/h 98 % 0.01 in /  0.3 mm
11:22 48 °F /  8.9 °C 47.5 °F /  8.6 °C 30 in /  1016.8 hPa WSW 2 mph /  3.2 km/h 6 mph /  9.7 km/h 98 % 0.01 in /  0.3 mm
11:32 48.4 °F /  9.1 °C 47.8 °F /  8.8 °C 30 in /  1016.8 hPa Calm   7 mph /  11.3 km/h 98 % 0.01 in /  0.3 mm
11:37 48.4 °F /  9.1 °C 47.8 °F /  8.8 °C 30 in /  1016.8 hPa West 2 mph /  3.2 km/h 6 mph /  9.7 km/h 98 % 0.01 in /  0.3 mm
11:42 48.6 °F /  9.2 °C 48 °F /  8.9 °C 30 in /  1016.8 hPa SW 3 mph /  4.8 km/h 6 mph /  9.7 km/h 98 % 0.01 in /  0.3 mm
11:47 48.6 °F /  9.2 °C 48 °F /  8.9 °C 30 in /  1016.8 hPa SSW 4 mph /  6.4 km/h 6 mph /  9.7 km/h 98 % 0 in /  0.0 mm
11:52 48.7 °F /  9.3 °C 48.2 °F /  9.0 °C 30 in /  1016.8 hPa West 2 mph /  3.2 km/h 6 mph /  9.7 km/h 98 % 0 in /  0.0 mm
11:57 48.7 °F /  9.3 °C 48.2 °F /  9.0 °C 30 in /  1017.2 hPa SSW 4 mph /  6.4 km/h 7 mph /  11.3 km/h 98 % 0 in /  0.0 mm
12:02 48.9 °F /  9.4 °C 48.4 °F /  9.1 °C 30 in /  1016.8 hPa SW 2 mph /  3.2 km/h 7 mph /  11.3 km/h 98 % 0 in /  0.0 mm
12:07 48.9 °F /  9.4 °C 48.4 °F /  9.1 °C 30 in /  1016.8 hPa WSW 2 mph /  3.2 km/h 7 mph /  11.3 km/h 98 % 0 in /  0.0 mm
12:12 49.1 °F /  9.5 °C 48.6 °F /  9.2 °C 30 in /  1016.8 hPa SSW 4 mph /  6.4 km/h 7 mph /  11.3 km/h 98 % 0 in /  0.0 mm
12:17 49.3 °F /  9.6 °C 48.7 °F /  9.3 °C 30 in /  1017.2 hPa West 3 mph /  4.8 km/h 6 mph /  9.7 km/h 98 % 0 in /  0.0 mm
12:22 49.3 °F /  9.6 °C 48.7 °F /  9.3 °C 30 in /  1016.8 hPa WSW 2 mph /  3.2 km/h 6 mph /  9.7 km/h 98 % 0 in /  0.0 mm
12:27 49.3 °F /  9.6 °C 48.7 °F /  9.3 °C 30 in /  1016.8 hPa SW 2 mph /  3.2 km/h 6 mph /  9.7 km/h 98 % 0 in /  0.0 mm
12:32 49.3 °F /  9.6 °C 48.7 °F /  9.3 °C 30 in /  1016.8 hPa SW 5 mph /  8.0 km/h 6 mph /  9.7 km/h 98 % 0 in /  0.0 mm
12:42 49.3 °F /  9.6 °C 48.7 °F /  9.3 °C 30 in /  1016.8 hPa West 2 mph /  3.2 km/h 7 mph /  11.3 km/h 98 % 0 in /  0.0 mm
12:47 49.3 °F /  9.6 °C 48.7 °F /  9.3 °C 30 in /  1016.5 hPa WSW 5 mph /  8.0 km/h 7 mph /  11.3 km/h 98 % 0 in /  0.0 mm
12:52 49.3 °F /  9.6 °C 48.7 °F /  9.3 °C 30 in /  1016.5 hPa WSW 6 mph /  9.7 km/h 7 mph /  11.3 km/h 98 % 0 in /  0.0 mm
13:02 49.1 °F /  9.5 °C 48.6 °F /  9.2 °C 30 in /  1016.5 hPa West 3 mph /  4.8 km/h 7 mph /  11.3 km/h 98 % 0 in /  0.0 mm
13:12 49.1 °F /  9.5 °C 48.6 °F /  9.2 °C 30 in /  1016.5 hPa West 3 mph /  4.8 km/h 7 mph /  11.3 km/h 98 % 0 in /  0.0 mm
13:17 49.3 °F /  9.6 °C 48.7 °F /  9.3 °C 30 in /  1016.5 hPa WSW 5 mph /  8.0 km/h 9 mph /  14.5 km/h 98 % 0 in /  0.0 mm
13:22 49.5 °F /  9.7 °C 48.9 °F /  9.4 °C 30 in /  1016.1 hPa West 2 mph /  3.2 km/h 9 mph /  14.5 km/h 98 % 0 in /  0.0 mm
13:27 49.5 °F /  9.7 °C 48.9 °F /  9.4 °C 30 in /  1016.1 hPa WSW 3 mph /  4.8 km/h 9 mph /  14.5 km/h 98 % 0 in /  0.0 mm
13:32 49.6 °F /  9.8 °C 49.1 °F /  9.5 °C 30 in /  1016.1 hPa West 3 mph /  4.8 km/h 9 mph /  14.5 km/h 98 % 0 in /  0.0 mm
13:37 49.6 °F /  9.8 °C 49.1 °F /  9.5 °C 30 in /  1016.1 hPa West 2 mph /  3.2 km/h 6 mph /  9.7 km/h 98 % 0 in /  0.0 mm
13:42 49.8 °F /  9.9 °C 49.3 °F /  9.6 °C 30 in /  1016.1 hPa West 4 mph /  6.4 km/h 6 mph /  9.7 km/h 98 % 0 in /  0.0 mm
13:47 50.2 °F /  10.1 °C 49.6 °F /  9.8 °C 30 in /  1016.1 hPa WNW 2 mph /  3.2 km/h 6 mph /  9.7 km/h 98 % 0 in /  0.0 mm
13:52 50.4 °F /  10.2 °C 49.8 °F /  9.9 °C 30 in /  1016.1 hPa West 2 mph /  3.2 km/h 6 mph /  9.7 km/h 98 % 0 in /  0.0 mm
13:57 50.5 °F /  10.3 °C 50 °F /  10.0 °C 30 in /  1016.1 hPa West 2 mph /  3.2 km/h 6 mph /  9.7 km/h 98 % 0 in /  0.0 mm
14:02 50.9 °F /  10.5 °C 50.4 °F /  10.2 °C 30 in /  1016.1 hPa West 3 mph /  4.8 km/h 5 mph /  8.0 km/h 98 % 0 in /  0.0 mm
14:12 51.4 °F /  10.8 °C 50.9 °F /  10.5 °C 30 in /  1015.8 hPa WNW 3 mph /  4.8 km/h 6 mph /  9.7 km/h 98 % 0 in /  0.0 mm
14:17 51.8 °F /  11.0 °C 51.3 °F /  10.7 °C 30 in /  1015.8 hPa WNW 3 mph /  4.8 km/h 6 mph /  9.7 km/h 98 % 0 in /  0.0 mm
14:22 52.2 °F /  11.2 °C 51.6 °F /  10.9 °C 30 in /  1015.8 hPa West 3 mph /  4.8 km/h 6 mph /  9.7 km/h 98 % 0 in /  0.0 mm
14:32 52.3 °F /  11.3 °C 51.8 °F /  11.0 °C 30 in /  1015.8 hPa WNW 3 mph /  4.8 km/h 5 mph /  8.0 km/h 98 % 0 in /  0.0 mm
14:37 52.3 °F /  11.3 °C 51.8 °F /  11.0 °C 30 in /  1015.8 hPa Calm   5 mph /  8.0 km/h 98 % 0 in /  0.0 mm
14:42 52.5 °F /  11.4 °C 52 °F /  11.1 °C 30 in /  1015.8 hPa NW 4 mph /  6.4 km/h 5 mph /  8.0 km/h 98 % 0 in /  0.0 mm
14:47 52.5 °F /  11.4 °C 52 °F /  11.1 °C 30 in /  1015.8 hPa WSW 3 mph /  4.8 km/h 4 mph /  6.4 km/h 98 % 0 in /  0.0 mm
14:52 52.7 °F /  11.5 °C 52.2 °F /  11.2 °C 30 in /  1015.8 hPa West 1 mph /  1.6 km/h 4 mph /  6.4 km/h 98 % 0 in /  0.0 mm
14:57 52.9 °F /  11.6 °C 52.3 °F /  11.3 °C 30 in /  1015.8 hPa Calm   4 mph /  6.4 km/h 98 % 0 in /  0.0 mm
15:02 52.9 °F /  11.6 °C 52 °F /  11.1 °C 30 in /  1015.8 hPa West 3 mph /  4.8 km/h 4 mph /  6.4 km/h 97 % 0 in /  0.0 mm
15:12 52.9 °F /  11.6 °C 52 °F /  11.1 °C 30 in /  1015.8 hPa WSW 1 mph /  1.6 km/h 5 mph /  8.0 km/h 97 % 0 in /  0.0 mm
15:17 52.9 °F /  11.6 °C 51.8 °F /  11.0 °C 30 in /  1015.8 hPa WSW 5 mph /  8.0 km/h 6 mph /  9.7 km/h 96 % 0 in /  0.0 mm
15:22 52.9 °F /  11.6 °C 51.8 °F /  11.0 °C 30 in /  1015.8 hPa WSW 2 mph /  3.2 km/h 7 mph /  11.3 km/h 96 % 0 in /  0.0 mm
15:27 52.9 °F /  11.6 °C 51.4 °F /  10.8 °C 30 in /  1015.8 hPa SW 5 mph /  8.0 km/h 7 mph /  11.3 km/h 95 % 0 in /  0.0 mm
15:32 52.9 °F /  11.6 °C 51.4 °F /  10.8 °C 30 in /  1015.8 hPa WSW 3 mph /  4.8 km/h 7 mph /  11.3 km/h 95 % 0 in /  0.0 mm
15:37 52.9 °F /  11.6 °C 51.4 °F /  10.8 °C 30 in /  1015.8 hPa WSW 1 mph /  1.6 km/h 7 mph /  11.3 km/h 95 % 0 in /  0.0 mm
15:42 53.1 °F /  11.7 °C 51.6 °F /  10.9 °C 30 in /  1015.8 hPa WSW 3 mph /  4.8 km/h 7 mph /  11.3 km/h 95 % 0 in /  0.0 mm
15:47 53.1 °F /  11.7 °C 51.6 °F /  10.9 °C 30 in /  1015.8 hPa West 2 mph /  3.2 km/h 7 mph /  11.3 km/h 95 % 0 in /  0.0 mm
15:52 53.2 °F /  11.8 °C 51.8 °F /  11.0 °C 30 in /  1015.8 hPa WNW 3 mph /  4.8 km/h 7 mph /  11.3 km/h 95 % 0 in /  0.0 mm
15:57 53.2 °F /  11.8 °C 51.8 °F /  11.0 °C 30 in /  1015.8 hPa West 2 mph /  3.2 km/h 4 mph /  6.4 km/h 95 % 0 in /  0.0 mm
16:02 53.2 °F /  11.8 °C 51.8 °F /  11.0 °C 30 in /  1015.8 hPa Calm   4 mph /  6.4 km/h 95 % 0 in /  0.0 mm
16:12 53.4 °F /  11.9 °C 52 °F /  11.1 °C 30 in /  1015.8 hPa Calm   4 mph /  6.4 km/h 95 % 0 in /  0.0 mm
16:17 53.6 °F /  12.0 °C 52.2 °F /  11.2 °C 30 in /  1015.8 hPa Calm   3 mph /  4.8 km/h 95 % 0 in /  0.0 mm
16:22 54 °F /  12.2 °C 52.5 °F /  11.4 °C 30 in /  1015.8 hPa Calm   2 mph /  3.2 km/h 95 % 0 in /  0.0 mm
16:32 54.1 °F /  12.3 °C 52.5 °F /  11.4 °C 30 in /  1015.8 hPa Calm     94 % 0 in /  0.0 mm
16:37 54 °F /  12.2 °C 52.3 °F /  11.3 °C 30 in /  1015.8 hPa Calm     94 % 0 in /  0.0 mm
16:42 53.8 °F /  12.1 °C 52.2 °F /  11.2 °C 30 in /  1015.8 hPa Calm     94 % 0 in /  0.0 mm
16:47 53.8 °F /  12.1 °C 52.2 °F /  11.2 °C 30 in /  1015.8 hPa Calm     94 % 0 in /  0.0 mm
16:52 53.8 °F /  12.1 °C 52.2 °F /  11.2 °C 30 in /  1015.8 hPa Calm     94 % 0 in /  0.0 mm
16:57 53.8 °F /  12.1 °C 52.2 °F /  11.2 °C 30 in /  1015.8 hPa Calm     94 % 0 in /  0.0 mm
17:02 53.8 °F /  12.1 °C 52.2 °F /  11.2 °C 30 in /  1016.1 hPa Calm     94 % 0 in /  0.0 mm
17:12 53.6 °F /  12.0 °C 52.2 °F /  11.2 °C 30 in /  1016.1 hPa Calm   1 mph /  1.6 km/h 95 % 0 in /  0.0 mm
17:17 53.6 °F /  12.0 °C 52.2 °F /  11.2 °C 30 in /  1016.1 hPa Calm   1 mph /  1.6 km/h 95 % 0 in /  0.0 mm
17:22 53.6 °F /  12.0 °C 52.2 °F /  11.2 °C 30 in /  1016.1 hPa Calm     95 % 0 in /  0.0 mm
17:27 53.4 °F /  11.9 °C 51.8 °F /  11.0 °C 30 in /  1016.1 hPa Calm     94 % 0 in /  0.0 mm
17:32 53.4 °F /  11.9 °C 52 °F /  11.1 °C 30 in /  1016.1 hPa Calm     95 % 0 in /  0.0 mm
17:37 53.2 °F /  11.8 °C 51.8 °F /  11.0 °C 30 in /  1016.1 hPa Calm     95 % 0 in /  0.0 mm
17:42 53.2 °F /  11.8 °C 51.8 °F /  11.0 °C 30 in /  1016.1 hPa Calm     95 % 0 in /  0.0 mm
17:47 53.1 °F /  11.7 °C 51.6 °F /  10.9 °C 30 in /  1016.5 hPa Calm     95 % 0 in /  0.0 mm
17:52 53.1 °F /  11.7 °C 51.6 °F /  10.9 °C 30 in /  1016.5 hPa Calm     95 % 0 in /  0.0 mm
17:57 52.9 °F /  11.6 °C 51.4 °F /  10.8 °C 30 in /  1016.5 hPa Calm     95 % 0 in /  0.0 mm
18:02 52.7 °F /  11.5 °C 51.3 °F /  10.7 °C 30 in /  1016.5 hPa Calm     95 % 0 in /  0.0 mm
18:07 52.5 °F /  11.4 °C 51.1 °F /  10.6 °C 30 in /  1016.5 hPa Calm     95 % 0 in /  0.0 mm
18:12 52.5 °F /  11.4 °C 51.1 °F /  10.6 °C 30 in /  1016.5 hPa Calm     95 % 0 in /  0.0 mm
18:17 52.3 °F /  11.3 °C 51.3 °F /  10.7 °C 30 in /  1016.5 hPa Calm     96 % 0 in /  0.0 mm
18:22 52.3 °F /  11.3 °C 51.3 °F /  10.7 °C 30 in /  1016.5 hPa Calm     96 % 0 in /  0.0 mm
18:32 52 °F /  11.1 °C 50.9 °F /  10.5 °C 30 in /  1016.5 hPa Calm     96 % 0 in /  0.0 mm
18:37 51.6 °F /  10.9 °C 50.5 °F /  10.3 °C 30 in /  1016.1 hPa Calm     96 % 0 in /  0.0 mm
18:42 51.6 °F /  10.9 °C 50.5 °F /  10.3 °C 30 in /  1016.1 hPa Calm     96 % 0 in /  0.0 mm
18:52 51.3 °F /  10.7 °C 50.2 °F /  10.1 °C 30 in /  1016.1 hPa Calm     96 % 0 in /  0.0 mm
19:02 51.1 °F /  10.6 °C 50 °F /  10.0 °C 30 in /  1016.1 hPa Calm     96 % 0 in /  0.0 mm
19:07 50.9 °F /  10.5 °C 49.8 °F /  9.9 °C 30 in /  1016.1 hPa Calm     96 % 0 in /  0.0 mm
19:12 50.7 °F /  10.4 °C 49.8 °F /  9.9 °C 30 in /  1016.1 hPa Calm     97 % 0 in /  0.0 mm
19:17 50.7 °F /  10.4 °C 49.8 °F /  9.9 °C 30 in /  1016.1 hPa Calm     97 % 0 in /  0.0 mm
19:22 50.5 °F /  10.3 °C 49.6 °F /  9.8 °C 30 in /  1016.1 hPa Calm     97 % 0 in /  0.0 mm
19:27 50.4 °F /  10.2 °C 49.5 °F /  9.7 °C 30 in /  1016.1 hPa Calm     97 % 0 in /  0.0 mm
19:32 50.4 °F /  10.2 °C 49.5 °F /  9.7 °C 30 in /  1016.1 hPa Calm     97 % 0 in /  0.0 mm
19:37 50.2 °F /  10.1 °C 49.3 °F /  9.6 °C 30 in /  1016.1 hPa Calm     97 % 0 in /  0.0 mm
19:42 50 °F /  10.0 °C 49.1 °F /  9.5 °C 30 in /  1016.1 hPa Calm     97 % 0 in /  0.0 mm
19:52 49.8 °F /  9.9 °C 48.9 °F /  9.4 °C 30 in /  1016.1 hPa Calm   1 mph /  1.6 km/h 97 % 0 in /  0.0 mm
19:57 49.8 °F /  9.9 °C 48.9 °F /  9.4 °C 30 in /  1016.1 hPa Calm     97 % 0 in /  0.0 mm
20:02 49.8 °F /  9.9 °C 48.9 °F /  9.4 °C 30 in /  1016.1 hPa Calm     97 % 0 in /  0.0 mm
20:12 49.8 °F /  9.9 °C 48.9 °F /  9.4 °C 30 in /  1016.1 hPa Calm     97 % 0 in /  0.0 mm
20:17 50 °F /  10.0 °C 49.5 °F /  9.7 °C 30 in /  1016.1 hPa Calm     98 % 0 in /  0.0 mm
20:22 50 °F /  10.0 °C 49.1 °F /  9.5 °C 30 in /  1016.1 hPa Calm     97 % 0 in /  0.0 mm
20:32 49.8 °F /  9.9 °C 48.9 °F /  9.4 °C 30 in /  1016.1 hPa Calm     97 % 0 in /  0.0 mm
20:42 50.2 °F /  10.1 °C 49.6 °F /  9.8 °C 30 in /  1016.1 hPa Calm     98 % 0 in /  0.0 mm
20:52 49.8 °F /  9.9 °C 48.9 °F /  9.4 °C 30 in /  1016.1 hPa Calm     97 % 0 in /  0.0 mm
20:57 49.8 °F /  9.9 °C 48.9 °F /  9.4 °C 30 in /  1016.1 hPa Calm     97 % 0 in /  0.0 mm
21:02 49.6 °F /  9.8 °C 48.7 °F /  9.3 °C 30 in /  1016.1 hPa Calm     97 % 0 in /  0.0 mm
21:12 49.6 °F /  9.8 °C 49.1 °F /  9.5 °C 30 in /  1016.1 hPa Calm     98 % 0 in /  0.0 mm
21:17 49.6 °F /  9.8 °C 49.1 °F /  9.5 °C 30 in /  1016.1 hPa Calm     98 % 0 in /  0.0 mm
21:22 49.6 °F /  9.8 °C 49.1 °F /  9.5 °C 30 in /  1016.1 hPa Calm     98 % 0 in /  0.0 mm
21:27 49.6 °F /  9.8 °C 48.7 °F /  9.3 °C 30 in /  1016.1 hPa Calm     97 % 0 in /  0.0 mm
21:32 49.3 °F /  9.6 °C 48.4 °F /  9.1 °C 30 in /  1016.1 hPa Calm     97 % 0 in /  0.0 mm
21:37 49.1 °F /  9.5 °C 48.2 °F /  9.0 °C 30 in /  1016.1 hPa Calm     97 % 0 in /  0.0 mm
21:42 48.9 °F /  9.4 °C 48 °F /  8.9 °C 30 in /  1016.1 hPa Calm     97 % 0 in /  0.0 mm
21:47 48.9 °F /  9.4 °C 48 °F /  8.9 °C 30 in /  1016.1 hPa Calm     97 % 0 in /  0.0 mm
21:52 48.9 °F /  9.4 °C 48.4 °F /  9.1 °C 30 in /  1016.1 hPa Calm     98 % 0 in /  0.0 mm
21:57 48.7 °F /  9.3 °C 48.2 °F /  9.0 °C 30 in /  1016.1 hPa Calm     98 % 0 in /  0.0 mm
22:02 48.7 °F /  9.3 °C 48.2 °F /  9.0 °C 30 in /  1016.1 hPa Calm     98 % 0 in /  0.0 mm
22:07 48.7 °F /  9.3 °C 48.2 °F /  9.0 °C 30 in /  1016.1 hPa Calm     98 % 0 in /  0.0 mm
22:12 48.7 °F /  9.3 °C 48.2 °F /  9.0 °C 30 in /  1016.1 hPa Calm     98 % 0 in /  0.0 mm
22:17 48.7 °F /  9.3 °C 48.2 °F /  9.0 °C 30 in /  1016.1 hPa Calm     98 % 0 in /  0.0 mm
22:22 48.7 °F /  9.3 °C 48.2 °F /  9.0 °C 30 in /  1016.1 hPa Calm     98 % 0 in /  0.0 mm
22:32 48.7 °F /  9.3 °C 48.2 °F /  9.0 °C 30 in /  1016.1 hPa Calm     98 % 0 in /  0.0 mm
22:37 48.6 °F /  9.2 °C 48 °F /  8.9 °C 30 in /  1016.1 hPa Calm     98 % 0 in /  0.0 mm
22:42 48.6 °F /  9.2 °C 48 °F /  8.9 °C 30 in /  1016.1 hPa Calm     98 % 0 in /  0.0 mm
22:47 48.6 °F /  9.2 °C 48 °F /  8.9 °C 30 in /  1016.1 hPa Calm     98 % 0 in /  0.0 mm
22:52 48.6 °F /  9.2 °C 48 °F /  8.9 °C 30 in /  1016.1 hPa Calm     98 % 0 in /  0.0 mm
22:57 48.7 °F /  9.3 °C 48.2 °F /  9.0 °C 30 in /  1016.1 hPa Calm     98 % 0 in /  0.0 mm
23:02 48.7 °F /  9.3 °C 48.2 °F /  9.0 °C 30 in /  1016.1 hPa Calm     98 % 0 in /  0.0 mm
23:07 48.7 °F /  9.3 °C 48.2 °F /  9.0 °C 30 in /  1016.1 hPa Calm     98 % 0 in /  0.0 mm
23:12 48.7 °F /  9.3 °C 48.2 °F /  9.0 °C 30 in /  1015.8 hPa Calm     98 % 0 in /  0.0 mm
23:17 48.7 °F /  9.3 °C 48.2 °F /  9.0 °C 30 in /  1015.8 hPa Calm     98 % 0 in /  0.0 mm
23:22 48.6 °F /  9.2 °C 48 °F /  8.9 °C 30 in /  1016.1 hPa Calm     98 % 0 in /  0.0 mm
23:27 48.6 °F /  9.2 °C 48 °F /  8.9 °C 30 in /  1016.1 hPa Calm     98 % 0 in /  0.0 mm
23:32 48.6 °F /  9.2 °C 48 °F /  8.9 °C 30 in /  1016.1 hPa Calm     98 % 0 in /  0.0 mm
23:37 48.6 °F /  9.2 °C 48 °F /  8.9 °C 30 in /  1015.8 hPa Calm     98 % 0 in /  0.0 mm
23:42 48.6 °F /  9.2 °C 48 °F /  8.9 °C 30 in /  1015.8 hPa Calm     98 % 0 in /  0.0 mm
23:47 48.6 °F /  9.2 °C 48 °F /  8.9 °C 30 in /  1016.1 hPa Calm     98 % 0 in /  0.0 mm
23:52 48.6 °F /  9.2 °C 48 °F /  8.9 °C 30 in /  1016.1 hPa Calm     98 % 0 in /  0.0 mm
23:57 48.4 °F /  9.1 °C 47.8 °F /  8.8 °C 30 in /  1016.1 hPa Calm     98 % 0 in /  0.0 mm
Meteo18
Compliments of Weather Underground - 4 mb

Script developed by  Jim McMurry - jmcmurry@mwt.net Adapted for the template by  Wim van der Kuil - Leuven-Template.eu

You find our weather info also at:

European Weather Network

Weather Underground

Equipment we use:

Weather-station
Davis Vue

Weather-program
Meteohub

Weather-server
Raspberry PI 2 B+

Provider
1 and 1

Davis Vue

Meteohub

Raspberry PI 2 B+

1 and 1